Time;durP1;ratioP1;P1;durP2;ratioP2;P2;SDS_P1;SDS_P2;PMS_P1;PMS_P2;Temp;Humidity;BMP_temperature;BMP_pressure;BME280_temperature;BME280_humidity;BME280_pressure;Samples;Min_cycle;Max_cycle;Signal;HPM_P1;HPM_P2
2022/01/21 00:00:18;;;;;;;3.85;1.22;;;;;;;0.19;59.67;99395.09;1751398;80;21075;-60
2022/01/21 00:02:44;;;;;;;3.77;1.32;;;;;;;0.15;59.52;99403.92;1734229;80;21019;-60
2022/01/21 00:05:11;;;;;;;4.33;1.50;;;;;;;0.12;59.59;99405.40;1718221;81;21265;-59
2022/01/21 00:07:38;;;;;;;3.35;1.25;;;;;;;0.11;59.76;99401.95;1747564;79;21094;-59
2022/01/21 00:10:06;;;;;;;5.33;1.55;;;;;;;0.09;59.73;99410.73;1715005;81;21085;-59
2022/01/21 00:12:35;;;;;;;3.90;1.47;;;;;;;0.06;59.59;99419.94;1714385;81;21090;-59
2022/01/21 00:15:07;;;;;;;5.00;1.80;;;;;;;0.06;59.37;99414.77;1746774;79;21081;-59
2022/01/21 00:17:36;;;;;;;5.58;2.22;;;;;;;-0.02;59.26;99415.15;1752659;80;21114;-60
2022/01/21 00:31:06;;;;;;;4.95;2.20;;;;;;;-0.09;58.47;99397.00;1741229;79;21164;-60
2022/01/21 00:33:32;;;;;;;6.15;1.52;;;;;;;-0.14;58.47;99408.86;1754064;79;21074;-59
2022/01/21 00:35:59;;;;;;;6.00;2.65;;;;;;;-0.14;58.47;99408.86;1744392;81;21079;-59
2022/01/21 00:38:29;;;;;;;5.95;2.40;;;;;;;-0.15;57.82;99391.69;1746936;80;21089;-59
2022/01/21 00:40:57;;;;;;;6.97;2.22;;;;;;;-0.13;57.85;99400.67;1713781;81;21095;-60
2022/01/21 00:43:43;;;;;;;4.95;1.98;;;;;;;-0.13;57.63;99404.08;1765129;79;22260;-60
2022/01/21 00:46:02;;;;;;;5.40;1.75;;;;;;;-0.15;57.77;99395.57;1737625;81;21106;-60
2022/01/21 00:48:29;;;;;;;6.37;2.10;;;;;;;-0.15;57.71;99387.81;1752488;81;21511;-60
2022/01/21 00:50:55;;;;;;;4.53;1.82;;;;;;;-0.13;57.70;99396.32;1766653;79;21626;-60
2022/01/21 00:53:21;;;;;;;6.08;1.57;;;;;;;-0.14;57.55;99390.77;1739248;81;21541;-60
2022/01/21 00:55:48;;;;;;;5.67;2.08;;;;;;;-0.14;57.07;99393.34;1754896;80;21861;-61
2022/01/21 00:58:14;;;;;;;4.92;1.75;;;;;;;-0.12;57.17;99394.56;1741825;80;21528;-61
2022/01/21 01:00:41;;;;;;;5.92;2.12;;;;;;;-0.12;57.14;99393.27;1767262;79;21543;-61
2022/01/21 01:03:08;;;;;;;9.53;2.17;;;;;;;-0.11;56.90;99398.36;1769788;79;21074;-61
2022/01/21 01:05:35;;;;;;;7.22;2.05;;;;;;;-0.14;56.54;99383.00;1752952;81;21083;-61
2022/01/21 01:08:03;;;;;;;5.60;1.85;;;;;;;-0.14;56.54;99383.00;1747437;81;21111;-59
2022/01/21 01:21:21;;;;;;;5.95;1.98;;;;;;;-0.23;55.79;99407.59;1741503;80;21038;-59
2022/01/21 01:29:19;;;;;;;6.05;1.55;;;;;;;-0.30;55.67;99383.41;1735626;80;21101;-60
2022/01/21 01:31:46;;;;;;;10.35;1.82;;;;;;;-0.30;55.71;99403.66;1739481;81;21010;-60
2022/01/21 01:34:13;;;;;;;5.70;2.02;;;;;;;-0.28;55.56;99411.34;1701508;82;21204;-59
2022/01/21 01:36:43;;;;;;;4.65;1.57;;;;;;;-0.33;55.06;99402.98;1764978;80;22258;-59
2022/01/21 01:41:49;;;;;;;5.35;1.90;;;;;;;-0.32;55.54;99394.29;1770320;78;21237;-59
2022/01/21 01:49:38;;;;;;;5.53;1.77;;;;;;;-0.37;54.89;99382.88;1756563;80;21550;-59
2022/01/21 01:52:09;;;;;;;9.53;2.15;;;;;;;-0.39;55.06;99382.13;1750493;79;21994;-59
2022/01/21 01:54:40;;;;;;;5.47;1.40;;;;;;;-0.41;54.77;99373.63;1752392;79;21090;-59
2022/01/21 01:57:07;;;;;;;4.72;1.35;;;;;;;-0.40;54.85;99385.19;1728840;81;21081;-60
2022/01/21 01:59:34;;;;;;;4.45;1.60;;;;;;;-0.42;54.64;99379.27;1726863;81;21208;-59
2022/01/21 02:02:04;;;;;;;4.00;1.15;;;;;;;-0.42;54.70;99369.36;1729149;79;21085;-59
2022/01/21 02:04:32;;;;;;;5.20;2.20;;;;;;;-0.44;54.40;99397.90;1769954;78;21056;-60
2022/01/21 02:06:59;;;;;;;5.08;2.00;;;;;;;-0.44;53.91;99364.73;1746905;81;21028;-59
2022/01/21 02:09:28;;;;;;;5.33;2.00;;;;;;;-0.41;53.97;99371.05;1755013;79;21515;-60
2022/01/21 02:11:55;;;;;;;5.87;2.10;;;;;;;-0.42;53.77;99375.82;1732546;81;22143;-59
2022/01/21 02:14:28;;;;;;;9.30;1.50;;;;;;;-0.45;53.61;99374.71;1741547;81;21610;-60
2022/01/21 02:22:15;;;;;;;7.17;1.92;;;;;;;-0.53;52.96;99370.38;1744342;80;21058;-59
2022/01/21 02:24:51;;;;;;;3.00;1.00;;;;;;;-0.53;52.96;99370.38;1757767;81;22389;-57
2022/01/21 02:27:16;;;;;;;6.37;1.85;;;;;;;-0.57;52.90;99372.30;1760148;81;21606;-59
2022/01/21 02:29:52;;;;;;;4.65;1.75;;;;;;;-0.62;52.62;99359.59;1734689;81;21577;-59
2022/01/21 02:32:19;;;;;;;5.50;1.22;;;;;;;-0.62;52.63;99370.40;1759039;79;21152;-60
2022/01/21 02:34:46;;;;;;;7.60;1.90;;;;;;;-0.64;52.70;99365.73;1731089;80;21272;-59
2022/01/21 02:37:15;;;;;;;9.05;1.82;;;;;;;-0.65;52.78;99366.20;1730922;81;21092;-60
2022/01/21 02:39:42;;;;;;;6.47;1.90;;;;;;;-0.64;52.73;99357.98;1742602;80;21068;-59
2022/01/21 02:42:09;;;;;;;5.25;1.72;;;;;;;-0.64;52.73;99357.98;1762350;79;21064;-59
2022/01/21 02:44:38;;;;;;;3.98;1.12;;;;;;;-0.63;52.76;99363.55;1740396;80;21062;-60
2022/01/21 02:47:05;;;;;;;4.25;1.72;;;;;;;-0.60;52.80;99364.22;1736403;81;21027;-60
2022/01/21 02:49:34;;;;;;;4.78;1.52;;;;;;;-0.59;52.65;99359.45;1741558;82;21161;-60
2022/01/21 02:52:02;;;;;;;4.85;1.60;;;;;;;-0.56;52.88;99351.52;1744785;79;21054;-60
2022/01/21 02:54:32;;;;;;;5.55;2.10;;;;;;;-0.52;52.90;99347.48;1754658;79;21062;-60
2022/01/21 02:56:58;;;;;;;5.20;2.00;;;;;;;-0.50;52.83;99345.69;1758249;79;21551;-59
2022/01/21 02:59:25;;;;;;;6.55;1.62;;;;;;;-0.47;52.95;99340.33;1729015;79;21921;-61
2022/01/21 03:01:52;;;;;;;6.53;2.15;;;;;;;-0.47;52.95;99340.33;1747603;81;21144;-60
2022/01/21 03:04:31;;;;;;;5.05;1.75;;;;;;;-0.45;53.28;99342.41;1726558;81;21061;-60
2022/01/21 03:06:48;;;;;;;5.00;1.87;;;;;;;-0.46;53.34;99332.97;1746966;81;21141;-60
2022/01/21 03:09:15;;;;;;;5.65;1.62;;;;;;;-0.56;53.79;99327.43;1727286;81;21097;-60
2022/01/21 03:11:42;;;;;;;4.60;1.40;;;;;;;-0.62;53.91;99333.76;1717500;81;21023;-60
2022/01/21 03:14:08;;;;;;;4.85;1.90;;;;;;;-0.62;53.91;99333.76;1753655;80;21142;-59
2022/01/21 03:16:35;;;;;;;3.75;1.40;;;;;;;-0.72;53.98;99313.61;1737117;80;21102;-59
2022/01/21 03:19:01;;;;;;;6.25;2.05;;;;;;;-0.72;53.98;99313.61;1750277;80;21026;-59
2022/01/21 03:21:28;;;;;;;5.53;1.82;;;;;;;-0.75;54.25;99313.33;1743435;80;21070;-59
2022/01/21 03:23:55;;;;;;;5.70;1.87;;;;;;;-0.79;54.30;99310.50;1738535;80;21137;-59
2022/01/21 03:26:25;;;;;;;4.15;1.27;;;;;;;-0.83;54.44;99314.99;1737692;81;21155;-59
2022/01/21 03:28:56;;;;;;;4.60;1.35;;;;;;;-0.89;54.81;99308.86;1728571;81;21057;-59
2022/01/21 03:31:22;;;;;;;7.05;1.37;;;;;;;-0.89;54.81;99308.86;1771574;79;21027;-60
2022/01/21 03:33:49;;;;;;;10.18;1.92;;;;;;;-0.96;54.81;99312.20;1740791;80;21011;-59
2022/01/21 03:36:17;;;;;;;5.15;1.55;;;;;;;-0.97;54.93;99312.28;1751876;81;21101;-59
2022/01/21 03:38:45;;;;;;;4.70;1.65;;;;;;;-0.97;55.05;99304.07;1745532;81;21315;-59
2022/01/21 03:41:12;;;;;;;3.95;1.65;;;;;;;-0.93;55.20;99311.20;1733593;81;21636;-59
2022/01/21 03:43:38;;;;;;;5.20;1.42;;;;;;;-0.80;55.00;99303.22;1761419;79;21543;-59
2022/01/21 03:46:05;;;;;;;5.47;1.92;;;;;;;-0.80;55.00;99303.22;1763447;79;21002;-59
2022/01/21 03:48:33;;;;;;;4.58;1.62;;;;;;;-0.73;55.07;99297.75;1769933;79;21063;-58
2022/01/21 03:51:00;;;;;;;6.53;1.92;;;;;;;-0.68;54.95;99297.89;1765183;79;21151;-58
2022/01/21 04:04:46;;;;;;;5.03;1.60;;;;;;;0.60;52.21;99275.52;1763496;79;22190;-60
2022/01/21 04:07:13;;;;;;;4.80;1.77;;;;;;;0.65;51.63;99294.22;1728073;81;21080;-60
2022/01/21 04:09:42;;;;;;;5.10;2.00;;;;;;;0.47;51.80;99286.19;1745508;80;21126;-59
2022/01/21 04:12:09;;;;;;;6.12;2.33;;;;;;;0.21;52.04;99296.70;1707133;80;21171;-59
2022/01/21 04:14:38;;;;;;;4.33;1.60;;;;;;;-0.07;52.56;99291.72;1744931;80;21355;-58
2022/01/21 04:17:05;;;;;;;5.45;1.75;;;;;;;-0.29;53.21;99279.92;1712682;81;21051;-59
2022/01/21 04:19:32;;;;;;;3.55;1.62;;;;;;;-0.46;53.85;99279.98;1694333;82;21059;-60
2022/01/21 04:21:59;;;;;;;7.25;2.05;;;;;;;-0.72;54.76;99268.41;1709399;81;21141;-60
2022/01/21 04:24:27;;;;;;;5.15;1.50;;;;;;;-0.72;54.76;99268.41;1740908;80;20946;-57
2022/01/21 04:26:53;;;;;;;5.12;1.62;;;;;;;-0.82;55.22;99273.23;1748138;80;21160;-57
2022/01/21 04:29:20;;;;;;;4.58;1.62;;;;;;;-0.99;55.78;99265.88;1749669;80;21153;-56
2022/01/21 04:31:51;;;;;;;4.30;1.67;;;;;;;-1.10;56.30;99260.41;1708482;82;21117;-58
2022/01/21 04:34:19;;;;;;;4.30;1.45;;;;;;;-1.16;56.63;99277.05;1747366;81;21113;-58
2022/01/21 04:36:46;;;;;;;5.22;1.50;;;;;;;-1.23;56.98;99273.54;1712406;82;22340;-60
2022/01/21 04:39:20;;;;;;;4.75;1.95;;;;;;;-1.26;57.17;99282.28;1709982;80;21072;-59
2022/01/21 04:47:16;;;;;;;6.75;1.52;;;;;;;-1.29;57.35;99291.89;1748820;81;21021;-58
2022/01/21 04:49:41;;;;;;;6.43;1.70;;;;;;;-1.42;58.13;99278.77;1710566;81;21569;-60
2022/01/21 04:52:08;;;;;;;5.12;1.57;;;;;;;-1.43;58.21;99284.39;1744429;80;21124;-58
2022/01/21 04:54:40;;;;;;;5.22;2.02;;;;;;;-1.43;58.28;99279.67;1740138;80;21910;-59
2022/01/21 04:57:06;;;;;;;5.90;2.25;;;;;;;-1.45;58.33;99277.16;1715611;82;21540;-59
2022/01/21 04:59:33;;;;;;;7.20;1.95;;;;;;;-1.47;58.55;99281.56;1746480;80;21093;-59
2022/01/21 05:02:00;;;;;;;4.85;1.65;;;;;;;-1.44;58.60;99288.34;1715349;81;21061;-59
2022/01/21 05:04:27;;;;;;;5.37;1.60;;;;;;;-1.45;58.79;99277.63;1730110;81;21050;-59
2022/01/21 05:06:54;;;;;;;5.62;2.42;;;;;;;-1.45;58.79;99277.63;1747892;80;21188;-59
2022/01/21 05:09:31;;;;;;;6.35;2.33;;;;;;;-1.47;59.06;99269.13;1710129;82;21748;-58
2022/01/21 05:11:55;;;;;;;5.62;1.95;;;;;;;-1.48;60.11;99291.49;1720496;82;21208;-58
2022/01/21 05:14:25;;;;;;;5.10;1.85;;;;;;;-1.51;60.17;99277.48;1693089;82;21647;-59
2022/01/21 05:17:00;;;;;;;5.92;2.08;;;;;;;-1.51;60.17;99277.48;1745829;81;21540;-61
2022/01/21 05:19:21;;;;;;;6.35;2.27;;;;;;;-1.53;59.91;99284.00;1719246;80;21092;-57
2022/01/21 05:21:50;;;;;;;6.00;1.92;;;;;;;-1.52;59.91;99284.83;1684401;82;21723;-59
2022/01/21 05:24:20;;;;;;;5.45;1.87;;;;;;;-1.50;59.94;99289.45;1744974;80;21136;-56
2022/01/21 05:26:56;;;;;;;3.98;1.37;;;;;;;-1.47;59.91;99288.02;1714153;82;21083;-58
2022/01/21 05:29:30;;;;;;;6.45;2.02;;;;;;;-1.44;60.92;99289.63;1743011;80;21105;-59
2022/01/21 05:32:03;;;;;;;4.50;1.80;;;;;;;-1.41;61.69;99282.57;1707664;82;21676;-59
2022/01/21 05:34:40;;;;;;;4.78;1.80;;;;;;;-1.32;60.63;99282.58;1711256;82;21013;-59
2022/01/21 05:37:15;;;;;;;6.83;2.10;;;;;;;-1.31;60.20;99295.41;1704578;83;21107;-59
2022/01/21 05:39:46;;;;;;;4.08;1.67;;;;;;;-1.27;60.14;99290.92;1715395;81;21128;-58
2022/01/21 05:42:19;;;;;;;7.80;1.98;;;;;;;-1.25;60.38;99280.53;1687067;82;21140;-60
2022/01/21 05:47:22;;;;;;;9.95;2.52;;;;;;;-1.25;60.63;99277.48;1724201;81;21041;-58
2022/01/21 05:50:02;;;;;;;5.65;1.90;;;;;;;-1.29;60.79;99284.16;1746995;81;21098;-57
2022/01/21 05:52:40;;;;;;;4.85;1.67;;;;;;;-1.28;60.85;99297.45;1701745;83;21072;-59
2022/01/21 05:55:23;;;;;;;4.80;1.85;;;;;;;-1.26;60.90;99292.61;1669166;84;21103;-59
2022/01/21 05:57:55;;;;;;;5.50;2.10;;;;;;;-1.22;60.86;99301.03;1633896;85;21174;-58
2022/01/21 06:00:22;;;;;;;7.40;2.30;;;;;;;-1.18;61.21;99288.34;1647820;84;21104;-59
2022/01/21 06:02:48;;;;;;;6.22;2.37;;;;;;;-1.16;61.21;99308.45;1693239;82;22014;-59
2022/01/21 06:05:15;;;;;;;6.90;2.25;;;;;;;-1.11;61.63;99297.45;1735557;81;21546;-58
2022/01/21 06:07:42;;;;;;;6.65;2.15;;;;;;;-1.11;61.63;99297.45;1739285;80;21042;-58
2022/01/21 06:10:09;;;;;;;6.97;2.22;;;;;;;-1.06;61.99;99298.09;1733072;82;21082;-59
2022/01/21 06:12:36;;;;;;;8.45;2.22;;;;;;;-1.04;62.13;99302.71;1728642;82;21653;-59
2022/01/21 06:15:04;;;;;;;6.40;1.72;;;;;;;-1.00;61.68;99302.09;1737972;80;21212;-58
2022/01/21 06:17:30;;;;;;;4.62;2.15;;;;;;;-0.92;61.09;99306.86;1733681;80;21079;-59
2022/01/21 06:19:56;;;;;;;6.22;1.60;;;;;;;-0.92;61.09;99306.86;1738425;81;21253;-59
2022/01/21 06:22:23;;;;;;;4.87;2.10;;;;;;;-0.89;61.20;99310.59;1730561;80;21078;-63
2022/01/21 06:24:52;;;;;;;6.35;2.27;;;;;;;-0.87;61.30;99328.98;1730968;80;21045;-59
2022/01/21 06:27:25;;;;;;;5.75;2.08;;;;;;;-0.83;60.92;99309.83;1736894;80;21211;-58
2022/01/21 06:29:46;;;;;;;4.70;1.95;;;;;;;-0.77;60.61;99310.00;1737903;80;21140;-58
2022/01/21 06:32:12;;;;;;;5.37;2.02;;;;;;;-0.75;60.82;99310.75;1732803;80;21085;-57
2022/01/21 06:34:39;;;;;;;7.60;2.10;;;;;;;-0.63;60.26;99302.83;1704870;82;21041;-58
2022/01/21 06:37:05;;;;;;;5.45;2.17;;;;;;;-0.63;60.26;99302.83;1738018;80;21041;-66
2022/01/21 06:39:32;;;;;;;8.43;2.37;;;;;;;-0.58;59.83;99317.17;1731352;82;21195;-58
2022/01/21 06:41:58;;;;;;;5.10;1.70;;;;;;;-0.50;59.88;99310.80;1737400;80;21105;-55
2022/01/21 06:44:25;;;;;;;5.83;1.57;;;;;;;-0.45;59.61;99299.77;1738632;82;21069;-57
2022/01/21 06:46:51;;;;;;;6.45;1.62;;;;;;;-0.39;58.84;99302.86;1715360;82;21105;-58
2022/01/21 06:49:17;;;;;;;6.72;2.12;;;;;;;-0.39;58.84;99302.86;1737945;80;21072;-59
2022/01/21 06:51:44;;;;;;;4.67;1.87;;;;;;;-0.37;58.98;99301.46;1712722;82;21180;-58
2022/01/21 06:54:11;;;;;;;5.00;2.17;;;;;;;-0.37;58.82;99320.84;1707156;81;21014;-59
2022/01/21 06:56:37;;;;;;;7.08;2.20;;;;;;;-0.42;58.68;99302.16;1713748;82;21058;-60
2022/01/21 06:59:04;;;;;;;5.25;1.20;;;;;;;-0.47;58.60;99310.18;1709874;82;21034;-51
2022/01/21 07:01:30;;;;;;;5.08;1.82;;;;;;;-0.48;58.59;99305.91;1739695;81;21065;-68
2022/01/21 07:03:57;;;;;;;6.45;2.22;;;;;;;-0.49;58.71;99313.27;1740261;80;21114;-59
2022/01/21 07:06:23;;;;;;;4.20;1.77;;;;;;;-0.50;58.88;99307.75;1737171;81;21074;-58
2022/01/21 07:08:49;;;;;;;6.70;2.25;;;;;;;-0.48;58.53;99302.03;1717339;82;21046;-58
2022/01/21 07:11:16;;;;;;;4.87;1.65;;;;;;;-0.45;58.81;99304.93;1715842;82;21074;-58
2022/01/21 07:13:42;;;;;;;4.20;1.90;;;;;;;-0.43;58.49;99304.39;1713419;82;21061;-58
2022/01/21 07:16:09;;;;;;;5.83;1.62;;;;;;;-0.38;58.22;99308.86;1712305;82;21826;-58
2022/01/21 07:18:35;;;;;;;7.47;2.27;;;;;;;-0.31;58.07;99314.55;1705547;82;21669;-59
2022/01/21 07:21:02;;;;;;;6.10;2.20;;;;;;;-0.31;58.07;99314.55;1731260;80;21065;-58
2022/01/21 07:23:28;;;;;;;4.08;1.82;;;;;;;-0.31;57.75;99306.79;1737378;80;21006;-65
2022/01/21 07:25:54;;;;;;;6.22;2.10;;;;;;;-0.30;57.70;99313.17;1703515;82;21199;-59
2022/01/21 07:28:21;;;;;;;6.30;2.00;;;;;;;-0.28;57.62;99312.63;1706857;82;21082;-62
2022/01/21 07:30:48;;;;;;;5.22;1.87;;;;;;;-0.25;57.50;99312.47;1740078;80;21608;-58
2022/01/21 07:33:14;;;;;;;7.28;2.12;;;;;;;-0.20;57.56;99313.53;1739615;80;21069;-62
2022/01/21 07:35:41;;;;;;;4.47;1.57;;;;;;;-0.19;57.33;99312.59;1738811;80;21149;-59
2022/01/21 07:38:07;;;;;;;6.40;2.37;;;;;;;-0.14;57.19;99318.83;1712210;80;21147;-60
2022/01/21 07:40:34;;;;;;;5.28;2.10;;;;;;;-0.17;57.05;99310.76;1741380;80;21133;-59
2022/01/21 07:43:01;;;;;;;6.83;1.80;;;;;;;-0.21;57.06;99306.68;1736913;81;21045;-58
2022/01/21 07:45:28;;;;;;;5.35;1.80;;;;;;;-0.21;57.06;99306.68;1706605;82;21607;-60
2022/01/21 07:47:54;;;;;;;5.87;1.95;;;;;;;-0.22;57.31;99316.20;1741439;80;21077;-59
2022/01/21 07:50:21;;;;;;;4.87;1.75;;;;;;;-0.22;57.06;99308.88;1735398;80;21069;-59
2022/01/21 07:52:47;;;;;;;4.45;2.08;;;;;;;-0.26;56.87;99299.16;1716769;80;21175;-61
2022/01/21 07:55:15;;;;;;;5.53;1.67;;;;;;;-0.30;56.63;99307.15;1716884;81;21387;-64
2022/01/21 07:57:41;;;;;;;5.05;2.35;;;;;;;-0.31;56.70;99315.37;1747347;80;21056;-61
2022/01/21 08:00:09;;;;;;;8.18;2.17;;;;;;;-0.36;56.56;99307.02;1721088;80;20987;-60
2022/01/21 08:02:41;;;;;;;4.60;1.85;;;;;;;-0.33;57.05;99311.21;1746465;80;21700;-62
2022/01/21 08:05:09;;;;;;;5.62;2.05;;;;;;;-0.36;56.74;99323.83;1750910;80;21713;-61
2022/01/21 08:07:36;;;;;;;5.25;1.72;;;;;;;-0.31;57.10;99317.13;1689672;81;21176;-61
2022/01/21 08:10:04;;;;;;;4.60;1.62;;;;;;;-0.33;56.68;99318.50;1751872;80;21088;-62
2022/01/21 08:12:32;;;;;;;7.72;2.05;;;;;;;-0.21;56.72;99311.38;1754561;80;21070;-62
2022/01/21 08:14:59;;;;;;;10.90;2.67;;;;;;;-0.21;56.72;99311.38;1717587;81;22406;-61
2022/01/21 08:17:29;;;;;;;4.53;1.60;;;;;;;-0.11;56.49;99314.79;1751372;80;22411;-61
2022/01/21 08:19:53;;;;;;;5.62;1.65;;;;;;;-0.07;58.23;99317.58;1748721;80;21030;-64
2022/01/21 08:22:22;;;;;;;7.72;2.45;;;;;;;-0.01;59.24;99311.62;1744361;80;21084;-59
2022/01/21 08:24:49;;;;;;;5.75;2.05;;;;;;;0.11;56.96;99315.30;1715045;81;21524;-59
2022/01/21 08:27:15;;;;;;;4.40;2.15;;;;;;;0.11;56.96;99315.30;1752266;80;21532;-60
2022/01/21 08:29:42;;;;;;;5.10;2.12;;;;;;;0.19;56.63;99308.43;1725016;81;22104;-61
2022/01/21 08:32:08;;;;;;;5.72;2.02;;;;;;;0.25;56.03;99296.43;1697975;82;21976;-65
2022/01/21 08:34:35;;;;;;;5.85;2.00;;;;;;;0.29;55.55;99329.47;1702117;82;21707;-61
2022/01/21 08:37:04;;;;;;;6.83;2.50;;;;;;;0.29;55.26;99300.53;1729349;81;21490;-60
2022/01/21 08:39:31;;;;;;;6.62;2.42;;;;;;;0.28;55.68;99334.25;1745050;80;21092;-59
2022/01/21 08:41:57;;;;;;;6.35;1.62;;;;;;;0.22;55.88;99311.30;1725177;80;21933;-61
2022/01/21 08:44:24;;;;;;;5.28;1.90;;;;;;;0.21;55.53;99314.34;1716462;81;21102;-61
2022/01/21 08:46:50;;;;;;;7.40;2.00;;;;;;;0.17;54.92;99318.86;1751415;80;21065;-64
2022/01/21 08:49:19;;;;;;;4.72;1.90;;;;;;;0.17;54.92;99318.86;1750708;80;21137;-67
2022/01/21 08:51:52;;;;;;;4.40;1.57;;;;;;;0.19;55.26;99311.02;1749823;80;21060;-60
2022/01/21 08:54:16;;;;;;;4.75;1.82;;;;;;;0.22;55.34;99310.00;1744348;80;21426;-64
2022/01/21 08:56:44;;;;;;;6.45;2.05;;;;;;;0.25;55.44;99312.42;1721082;81;21088;-63
2022/01/21 08:59:10;;;;;;;5.35;1.92;;;;;;;0.31;55.51;99315.98;1747447;80;21110;-61
2022/01/21 09:01:37;;;;;;;5.35;2.22;;;;;;;0.33;55.73;99299.91;1749712;80;21021;-60
2022/01/21 09:04:05;;;;;;;5.97;2.20;;;;;;;0.39;55.31;99306.05;1752413;80;21058;-59
2022/01/21 09:06:31;;;;;;;9.80;2.00;;;;;;;0.41;55.47;99289.97;1716167;82;21145;-59
2022/01/21 09:09:00;;;;;;;12.70;2.08;;;;;;;0.47;55.53;99293.52;1743941;80;21512;-67
2022/01/21 09:11:26;;;;;;;5.53;2.08;;;;;;;0.51;55.08;99283.82;1742806;80;21585;-63
2022/01/21 09:13:53;;;;;;;5.45;1.90;;;;;;;0.47;56.51;99297.84;1740864;80;21644;-59
2022/01/21 09:16:21;;;;;;;7.22;3.00;;;;;;;0.51;56.56;99294.17;1739738;80;21690;-65
2022/01/21 09:18:55;;;;;;;4.83;1.85;;;;;;;0.60;55.66;99298.82;1741895;80;21958;-62
2022/01/21 09:21:19;;;;;;;5.05;2.25;;;;;;;0.65;56.20;99291.63;1709036;81;21066;-64
2022/01/21 09:23:49;;;;;;;5.67;1.85;;;;;;;0.66;56.38;99292.48;1685038;81;21576;-63
2022/01/21 09:26:17;;;;;;;5.75;2.30;;;;;;;0.68;56.06;99277.69;1678526;82;21067;-64
2022/01/21 09:28:44;;;;;;;8.63;2.58;;;;;;;0.65;56.31;99295.98;1741643;80;22082;-59
2022/01/21 09:31:11;;;;;;;17.02;2.95;;;;;;;0.64;56.78;99280.92;1683890;81;22125;-59
2022/01/21 09:33:38;;;;;;;8.95;2.08;;;;;;;0.68;56.31;99289.34;1718093;81;21405;-64
2022/01/21 09:36:05;;;;;;;7.78;2.20;;;;;;;0.72;56.52;99301.17;1689094;81;21050;-63
2022/01/21 09:38:32;;;;;;;8.55;2.80;;;;;;;0.73;56.44;99295.09;1744824;80;22631;-60
2022/01/21 09:40:58;;;;;;;3.90;1.65;;;;;;;0.74;56.60;99290.30;1743581;80;21140;-68
2022/01/21 09:43:25;;;;;;;4.70;1.80;;;;;;;0.66;56.64;99286.84;1707320;82;21078;-60
2022/01/21 09:45:54;;;;;;;6.00;2.50;;;;;;;0.65;56.76;99282.56;1741161;80;21155;-65
2022/01/21 09:48:27;;;;;;;6.03;2.15;;;;;;;0.60;56.83;99286.34;1721095;80;21726;-64
2022/01/21 09:51:00;;;;;;;6.47;2.33;;;;;;;0.57;56.91;99283.92;1743455;80;21133;-67
2022/01/21 09:53:33;;;;;;;6.55;2.37;;;;;;;0.51;57.88;99282.06;1749570;80;21229;-61
2022/01/21 09:56:00;;;;;;;8.08;2.45;;;;;;;0.49;57.63;99280.02;1740044;80;21140;-60
2022/01/21 09:58:28;;;;;;;7.20;2.27;;;;;;;0.51;58.02;99277.34;1751067;80;21058;-64
2022/01/21 10:00:59;;;;;;;5.45;2.02;;;;;;;0.51;58.55;99282.06;1709075;81;21103;-60
2022/01/21 10:03:26;;;;;;;9.15;3.05;;;;;;;0.53;58.85;99254.80;1748086;80;21037;-60
2022/01/21 10:05:53;;;;;;;6.28;2.70;;;;;;;0.52;59.08;99268.20;1743740;80;21162;-62
2022/01/21 10:08:23;;;;;;;7.00;3.58;;;;;;;0.50;59.20;99284.26;1728682;80;21127;-60
2022/01/21 10:10:51;;;;;;;7.53;2.50;;;;;;;0.51;58.81;99262.64;1753470;80;21651;-58
2022/01/21 10:13:19;;;;;;;7.90;2.47;;;;;;;0.51;58.54;99267.00;1719999;81;21460;-60
2022/01/21 10:15:48;;;;;;;7.25;2.47;;;;;;;0.52;58.46;99259.15;1749485;80;21752;-61
2022/01/21 10:18:19;;;;;;;7.42;2.80;;;;;;;0.53;58.64;99260.80;1747450;80;21729;-61
2022/01/21 10:21:10;;;;;;;6.45;2.40;;;;;;;0.51;63.72;99262.64;1734678;80;21086;-61
2022/01/21 10:23:37;;;;;;;6.87;2.52;;;;;;;0.48;64.97;99264.11;1750442;80;21054;-60
2022/01/21 10:26:13;;;;;;;6.25;2.40;;;;;;;0.44;64.54;99302.73;1724521;81;21071;-62
2022/01/21 10:28:42;;;;;;;9.85;3.12;;;;;;;0.39;68.62;99276.28;1751294;80;21068;-64
2022/01/21 10:31:18;;;;;;;9.65;2.87;;;;;;;0.30;69.07;99271.61;1750490;80;21093;-59
2022/01/21 10:33:48;;;;;;;6.20;2.90;;;;;;;0.23;71.35;99268.52;1718143;81;21193;-59
2022/01/21 10:36:39;;;;;;;7.37;2.95;;;;;;;0.14;70.80;99272.92;1749207;80;21579;-61
2022/01/21 10:38:51;;;;;;;11.80;3.02;;;;;;;0.10;72.67;99273.55;1716516;80;21127;-55
2022/01/21 10:41:19;;;;;;;6.42;2.80;;;;;;;0.09;73.23;99261.99;1749094;80;21070;-57
2022/01/21 10:44:08;;;;;;;9.23;2.47;;;;;;;0.14;73.63;99244.47;1722419;81;20977;-58
2022/01/21 10:46:35;;;;;;;7.40;2.65;;;;;;;0.10;75.38;99267.09;1723762;82;21261;-59
2022/01/21 10:49:12;;;;;;;11.28;2.83;;;;;;;0.11;76.13;99262.27;1703229;83;21110;-59
2022/01/21 10:51:41;;;;;;;8.70;2.55;;;;;;;0.10;75.66;99272.70;1719271;82;21123;-59
2022/01/21 10:54:17;;;;;;;7.12;2.75;;;;;;;0.09;75.52;99278.81;1746836;80;21088;-59
2022/01/21 10:57:07;;;;;;;7.35;3.12;;;;;;;0.06;75.48;99268.16;1750665;80;21040;-59
2022/01/21 11:00:00;;;;;;;7.05;3.17;;;;;;;0.04;76.42;99265.29;1715208;81;22423;-57
2022/01/21 11:02:47;;;;;;;6.28;2.58;;;;;;;0.02;75.89;99266.66;1715999;81;21080;-59
2022/01/21 11:05:16;;;;;;;6.97;2.98;;;;;;;0.02;75.89;99265.81;1750112;80;21182;-58
2022/01/21 11:07:54;;;;;;;7.40;2.50;;;;;;;0.04;76.42;99255.77;1709591;81;21087;-59
2022/01/21 11:10:39;;;;;;;8.18;2.65;;;;;;;0.08;76.38;99260.31;1741880;80;21538;-69
2022/01/21 11:13:19;;;;;;;9.53;2.80;;;;;;;0.11;76.06;99266.15;1725571;81;21127;-57
2022/01/21 11:15:58;;;;;;;7.92;2.45;;;;;;;0.07;75.93;99255.61;1713716;81;21092;-57
2022/01/21 11:18:22;;;;;;;5.97;2.27;;;;;;;0.04;75.50;99259.66;1723956;80;21109;-58
2022/01/21 11:20:57;;;;;;;9.73;2.30;;;;;;;0.04;75.20;99246.72;1742407;80;21129;-66
2022/01/21 11:23:22;;;;;;;9.23;2.70;;;;;;;-0.01;74.43;99256.48;1720595;80;21100;-57
2022/01/21 11:25:58;;;;;;;5.70;2.52;;;;;;;-0.01;75.62;99237.91;1718963;80;21173;-58
2022/01/21 11:28:28;;;;;;;10.80;2.60;;;;;;;0.04;75.50;99241.55;1719143;81;21100;-59
2022/01/21 11:30:54;;;;;;;7.58;2.98;;;;;;;0.02;74.43;99247.70;1716247;80;21363;-58
2022/01/21 11:33:22;;;;;;;5.83;2.37;;;;;;;0.03;76.23;99235.16;1746704;80;21042;-59
2022/01/21 11:35:50;;;;;;;12.23;2.92;;;;;;;0.06;77.25;99250.52;1704476;81;21124;-58
2022/01/21 11:38:18;;;;;;;5.70;2.52;;;;;;;0.06;76.49;99234.53;1730709;81;21692;-63
2022/01/21 11:40:44;;;;;;;7.20;3.00;;;;;;;0.03;74.78;99232.11;1726990;81;21071;-58
2022/01/21 11:43:11;;;;;;;6.12;2.62;;;;;;;0.04;76.10;99236.84;1730989;81;21044;-65
2022/01/21 11:50:48;;;;;;;5.45;2.62;;;;;;;0.06;75.52;99244.05;1723375;81;21078;-59
2022/01/21 11:53:17;;;;;;;6.30;2.00;;;;;;;0.05;75.09;99250.98;1729473;81;21488;-59
2022/01/21 11:55:47;;;;;;;5.22;2.40;;;;;;;0.04;75.90;99236.38;1699937;82;21058;-59
2022/01/21 11:58:22;;;;;;;4.58;1.87;;;;;;;0.08;76.45;99249.50;1731195;81;21542;-59
2022/01/21 12:00:51;;;;;;;6.30;2.08;;;;;;;0.08;75.45;99259.84;1728938;81;21085;-60
2022/01/21 12:03:21;;;;;;;5.15;2.25;;;;;;;0.08;74.87;99250.79;1729361;81;21145;-62
2022/01/21 12:05:47;;;;;;;6.47;2.50;;;;;;;0.05;75.30;99250.98;1707877;82;21632;-60
2022/01/21 12:08:16;;;;;;;5.92;2.00;;;;;;;0.06;75.59;99266.03;1721282;82;21703;-58
2022/01/21 12:10:43;;;;;;;7.22;2.15;;;;;;;0.02;74.61;99249.00;1724650;82;21398;-59
2022/01/21 12:13:16;;;;;;;5.12;2.10;;;;;;;-0.09;76.99;99261.23;1717398;82;21106;-58
2022/01/21 12:19:23;;;;;;;5.58;2.15;;;;;;;-0.25;78.60;99259.48;1722671;82;21078;-61
2022/01/21 12:21:31;;;;;;;6.28;2.80;;;;;;;-0.28;78.90;99253.17;1678884;82;21105;-61
2022/01/21 12:23:59;;;;;;;5.15;2.20;;;;;;;-0.28;79.44;99251.88;1719791;81;26549;-60
2022/01/21 12:26:27;;;;;;;9.30;3.10;;;;;;;-0.24;79.00;99248.66;1723565;82;21110;-60
2022/01/21 12:29:01;;;;;;;10.43;2.65;;;;;;;-0.24;78.51;99240.91;1720253;81;21062;-58
2022/01/21 12:31:59;;;;;;;10.98;2.47;;;;;;;-0.24;78.34;99248.20;1724129;82;21125;-56
2022/01/21 12:34:26;;;;;;;5.22;1.95;;;;;;;-0.25;78.24;99249.14;1696586;82;21061;-63
2022/01/21 12:36:56;;;;;;;8.15;2.12;;;;;;;-0.25;77.76;99238.80;1697720;82;21148;-71
2022/01/21 12:39:45;;;;;;;8.98;2.45;;;;;;;-0.26;76.94;99253.92;1719042;82;21062;-58
2022/01/21 12:42:24;;;;;;;4.90;1.62;;;;;;;-0.20;77.29;99251.02;1723526;82;21890;-64
2022/01/21 12:45:13;;;;;;;5.55;1.72;;;;;;;-0.20;77.29;99251.02;1723941;82;21533;-58
2022/01/21 12:47:44;;;;;;;12.18;2.60;;;;;;;-0.19;76.05;99243.61;1721601;82;21557;-60
2022/01/21 12:50:37;;;;;;;5.17;2.20;;;;;;;-0.17;75.51;99247.41;1720221;82;22248;-60
2022/01/21 12:53:07;;;;;;;4.90;1.90;;;;;;;-0.11;76.43;99256.61;1682291;81;21070;-58